Time;durP1;ratioP1;P1;durP2;ratioP2;P2;SDS_P1;SDS_P2;PMS_P1;PMS_P2;Temp;Humidity;BMP_temperature;BMP_pressure;BME280_temperature;BME280_humidity;BME280_pressure;Samples;Min_cycle;Max_cycle;Signal;HPM_P1;HPM_P2
2022/01/28 00:01:39;;;;;;;;;7.75;5.50;;;;;21.25;33.69;102831.13;5077419;27;45341;-56
2022/01/28 00:04:13;;;;;;;;;8.00;8.00;;;;;21.28;33.33;102831.91;5077459;27;45267;-60
2022/01/28 00:06:38;;;;;;;;;9.00;8.00;;;;;21.33;33.78;102828.28;5077159;27;47501;-60
2022/01/28 00:09:04;;;;;;;;;12.00;7.00;;;;;21.37;33.75;102822.88;5076973;28;45323;-59
2022/01/28 00:11:29;;;;;;;;;8.00;7.50;;;;;21.40;32.90;102830.69;5077166;27;45315;-59
2022/01/28 00:14:06;;;;;;;;;7.50;7.00;;;;;21.44;33.25;102831.50;5077505;27;45443;-60
2022/01/28 00:38:04;;;;;;;;;8.00;8.00;;;;;21.73;33.20;102849.16;5076806;27;45381;-58
2022/01/28 00:40:32;;;;;;;;;7.00;7.00;;;;;21.75;33.42;102849.13;5076687;27;45310;-58
2022/01/28 00:42:57;;;;;;;;;4.75;4.75;;;;;21.76;33.19;102853.50;5076866;27;45303;-60
2022/01/28 00:45:23;;;;;;;;;8.75;7.50;;;;;21.77;33.00;102861.38;5076874;27;45465;-58
2022/01/28 00:47:49;;;;;;;;;6.75;6.75;;;;;21.79;33.37;102861.31;5076617;27;45734;-54
2022/01/28 00:50:15;;;;;;;;;5.50;5.00;;;;;21.81;33.33;102856.00;5076980;27;45260;-55
2022/01/28 00:52:40;;;;;;;;;7.75;7.25;;;;;21.82;33.55;102857.75;5076765;27;45412;-57
2022/01/28 00:55:06;;;;;;;;;7.50;5.75;;;;;21.83;33.30;102862.13;5076813;28;45517;-54
2022/01/28 00:57:32;;;;;;;;;8.25;6.50;;;;;21.83;33.13;102867.41;5076308;27;45423;-53
2022/01/28 00:59:57;;;;;;;;;7.50;7.50;;;;;21.81;33.29;102859.50;5076511;27;45379;-55
2022/01/28 01:02:22;;;;;;;;;9.00;8.00;;;;;21.83;33.33;102864.75;5076712;27;45374;-56
2022/01/28 01:04:48;;;;;;;;;6.00;6.00;;;;;21.82;33.43;102869.16;5076956;27;45951;-54
2022/01/28 01:07:13;;;;;;;;;6.25;6.25;;;;;21.83;33.29;102880.59;5076592;27;46594;-52
2022/01/28 01:09:39;;;;;;;;;8.00;6.25;;;;;21.83;33.11;102877.94;5076243;27;45512;-53
2022/01/28 01:12:04;;;;;;;;;6.75;6.00;;;;;21.81;33.42;102877.97;5077170;28;45479;-58
2022/01/28 01:14:30;;;;;;;;;6.00;6.00;;;;;21.82;33.22;102874.44;5080194;27;45396;-56
2022/01/28 01:19:58;;;;;;;;;7.00;6.00;;;;;21.75;33.26;102872.88;5074958;27;45772;-54
2022/01/28 01:22:25;;;;;;;;;8.00;8.00;;;;;21.80;33.60;102885.94;5095681;27;45418;-56
2022/01/28 01:24:59;;;;;;;;;7.00;7.00;;;;;21.78;32.93;102900.06;5080153;27;45514;-56
2022/01/28 01:27:24;;;;;;;;;8.50;6.50;;;;;21.78;33.37;102896.53;5079552;27;46348;-59
2022/01/28 01:29:50;;;;;;;;;10.00;7.25;;;;;21.76;33.02;102893.94;5079770;27;45330;-55
2022/01/28 01:32:17;;;;;;;;;7.00;7.00;;;;;21.76;33.07;102893.09;5078646;28;45754;-56
2022/01/28 01:34:43;;;;;;;;;10.25;8.00;;;;;21.75;33.45;102894.00;5079931;27;45649;-59
2022/01/28 01:37:10;;;;;;;;;8.00;7.00;;;;;21.75;33.59;102901.91;5079661;27;46254;-57
2022/01/28 01:39:37;;;;;;;;;8.00;6.50;;;;;21.74;33.53;102900.19;5079652;27;45345;-55
2022/01/28 01:42:16;;;;;;;;;10.50;8.25;;;;;21.71;33.42;102895.88;5079687;27;45252;-54
2022/01/28 01:52:51;;;;;;;;;8.25;8.00;;;;;21.68;33.54;102916.16;5079469;27;45267;-55
2022/01/28 01:55:17;;;;;;;;;10.00;6.75;;;;;21.67;33.24;102922.34;5079828;27;45619;-59
2022/01/28 01:57:44;;;;;;;;;7.50;6.00;;;;;21.65;33.67;102918.91;5078971;27;46426;-58
2022/01/28 02:00:10;;;;;;;;;7.25;5.00;;;;;21.64;33.44;102920.66;5079226;27;45289;-60
2022/01/28 02:02:36;;;;;;;;;9.50;8.50;;;;;21.62;33.54;102920.72;5079301;27;45358;-56
2022/01/28 02:05:02;;;;;;;;;8.25;8.25;;;;;21.62;33.69;102926.00;5079391;27;45540;-56
2022/01/28 02:07:28;;;;;;;;;9.00;7.25;;;;;21.60;33.98;102933.09;5078990;27;46366;-55
2022/01/28 02:09:54;;;;;;;;;13.00;9.25;;;;;21.58;33.68;102929.59;5078967;27;45191;-56
2022/01/28 02:12:19;;;;;;;;;8.75;6.75;;;;;21.59;33.39;102938.41;5077972;28;45449;-58
2022/01/28 02:14:45;;;;;;;;;9.25;7.25;;;;;21.55;33.61;102934.94;5078070;28;45510;-59
2022/01/28 02:17:11;;;;;;;;;8.75;7.00;;;;;21.55;33.64;102932.28;5078745;27;46788;-60
2022/01/28 02:19:38;;;;;;;;;7.25;7.25;;;;;21.54;33.56;102937.63;5079008;27;45397;-57
2022/01/28 02:22:04;;;;;;;;;10.50;7.00;;;;;21.53;33.91;102939.41;5078773;27;45423;-56
2022/01/28 02:24:40;;;;;;;;;7.00;7.00;;;;;21.52;33.85;102955.25;5079002;27;45473;-56
2022/01/28 02:27:05;;;;;;;;;8.00;7.00;;;;;21.50;33.91;102939.47;5078053;27;45317;-55
2022/01/28 02:29:34;;;;;;;;;8.50;6.75;;;;;21.50;33.70;102941.28;5094401;27;45302;-60
2022/01/28 02:32:04;;;;;;;;;9.00;6.75;;;;;21.49;33.84;102944.81;5078726;27;45211;-57
2022/01/28 02:34:30;;;;;;;;;9.00;8.00;;;;;21.47;34.22;102942.19;5079062;28;45317;-57
2022/01/28 02:36:56;;;;;;;;;10.00;7.00;;;;;21.43;33.80;102935.28;5078511;27;45389;-58
2022/01/28 02:39:22;;;;;;;;;9.00;8.00;;;;;21.45;33.99;102950.16;5078927;27;45752;-58
2022/01/28 02:41:51;;;;;;;;;8.25;7.25;;;;;21.42;33.99;102950.22;5078967;27;45440;-58
2022/01/28 02:44:22;;;;;;;;;6.75;4.75;;;;;21.42;34.29;102954.66;5078809;27;45481;-61
2022/01/28 02:47:00;;;;;;;;;10.00;8.50;;;;;21.40;34.21;102965.22;5078540;27;47050;-59
2022/01/28 02:49:30;;;;;;;;;10.00;8.00;;;;;21.39;33.76;102957.34;5078416;27;45489;-57
2022/01/28 02:51:58;;;;;;;;;7.50;7.50;;;;;21.36;34.09;102950.41;5078480;27;45217;-55
2022/01/28 02:54:23;;;;;;;;;7.25;7.00;;;;;21.36;34.10;102953.03;5077418;28;45509;-56
2022/01/28 02:56:51;;;;;;;;;9.25;8.00;;;;;21.37;34.26;102949.50;5077330;28;47013;-59
2022/01/28 02:59:17;;;;;;;;;6.75;6.00;;;;;21.34;33.94;102952.19;5078011;27;45441;-53
2022/01/28 03:01:43;;;;;;;;;9.50;9.00;;;;;21.30;34.36;102948.78;5077195;28;45504;-60
2022/01/28 03:04:11;;;;;;;;;9.25;8.50;;;;;21.33;33.88;102961.00;5078432;27;45520;-60
2022/01/28 03:06:36;;;;;;;;;9.00;7.75;;;;;21.33;33.52;102960.16;5078111;27;46712;-61
2022/01/28 03:09:13;;;;;;;;;7.50;7.00;;;;;21.31;34.22;102952.25;5076886;28;45708;-61
2022/01/28 03:19:26;;;;;;;;;9.00;8.25;;;;;21.26;34.22;102935.72;5078148;27;45859;-60
2022/01/28 03:22:00;;;;;;;;;8.50;7.50;;;;;21.25;34.41;102931.34;5094035;27;45378;-58
2022/01/28 03:24:27;;;;;;;;;11.25;8.00;;;;;21.24;34.08;102935.72;5078139;27;45393;-57
2022/01/28 03:27:03;;;;;;;;;7.25;7.25;;;;;21.23;34.36;102934.00;5078037;27;46537;-54
2022/01/28 03:29:28;;;;;;;;;8.00;8.00;;;;;21.22;34.36;102941.94;5077679;27;45449;-54
2022/01/28 03:31:54;;;;;;;;;10.00;9.00;;;;;21.21;34.46;102946.38;5078269;27;45369;-58
2022/01/28 03:34:19;;;;;;;;;7.50;7.25;;;;;21.21;34.29;102945.50;5076243;28;45366;-58
2022/01/28 03:36:45;;;;;;;;;9.00;8.00;;;;;21.21;34.55;102951.66;5077762;28;45365;-62
2022/01/28 03:39:11;;;;;;;;;8.00;7.75;;;;;21.23;34.27;102936.63;5077717;27;45448;-62
2022/01/28 03:41:37;;;;;;;;;8.50;8.50;;;;;21.25;34.22;102931.34;5077892;27;45266;-61
2022/01/28 03:44:03;;;;;;;;;11.75;9.25;;;;;21.28;34.17;102931.22;5077956;27;45301;-59
2022/01/28 03:46:29;;;;;;;;;6.00;4.25;;;;;21.31;34.69;102939.97;5077545;27;46046;-58
2022/01/28 03:48:56;;;;;;;;;8.00;8.00;;;;;21.35;34.76;102942.50;5077908;27;45782;-60
2022/01/28 03:51:22;;;;;;;;;9.00;8.00;;;;;21.39;34.45;102944.16;5093744;27;45473;-61
2022/01/28 03:53:48;;;;;;;;;5.75;5.00;;;;;21.43;34.65;102948.47;5076655;28;45482;-61
2022/01/28 03:56:14;;;;;;;;;8.50;7.75;;;;;21.46;34.61;102951.88;5077220;27;46439;-61
2022/01/28 03:58:40;;;;;;;;;7.00;7.00;;;;;21.51;34.56;102958.81;5077483;28;45840;-60
2022/01/28 04:01:12;;;;;;;;;7.25;7.25;;;;;21.53;34.43;102963.16;5077419;27;45204;-61
2022/01/28 04:11:42;;;;;;;;;9.50;7.25;;;;;21.69;33.94;102978.59;5077277;27;45936;-58
2022/01/28 04:14:15;;;;;;;;;9.00;8.50;;;;;21.70;34.07;102980.34;5077512;27;45501;-59
2022/01/28 04:19:25;;;;;;;;;8.25;6.50;;;;;21.77;34.35;102976.66;5077384;28;45358;-60
2022/01/28 04:21:50;;;;;;;;;9.00;9.00;;;;;21.78;34.04;102973.97;5077112;28;45418;-57
2022/01/28 04:24:16;;;;;;;;;11.00;9.25;;;;;21.81;34.00;102967.72;5077259;27;45412;-53
2022/01/28 04:26:41;;;;;;;;;7.50;7.50;;;;;21.81;34.09;102973.00;5076863;27;46030;-59
2022/01/28 04:29:08;;;;;;;;;6.75;6.75;;;;;21.83;33.96;102976.47;5077012;27;45432;-58
2022/01/28 04:31:34;;;;;;;;;9.25;8.00;;;;;21.81;33.97;102962.44;5077042;27;45427;-61
2022/01/28 04:34:01;;;;;;;;;9.00;9.00;;;;;21.85;34.14;102979.94;5077201;27;45416;-57
2022/01/28 04:36:30;;;;;;;;;9.75;9.75;;;;;21.84;33.70;102978.22;5077155;27;46074;-55
2022/01/28 04:39:04;;;;;;;;;8.75;8.75;;;;;21.85;33.93;102982.56;5077031;27;45827;-54
2022/01/28 04:41:44;;;;;;;;;6.25;6.25;;;;;21.82;33.59;102972.09;5077003;27;45311;-56
2022/01/28 04:44:17;;;;;;;;;9.75;8.75;;;;;21.85;33.87;102964.09;5077121;27;45365;-60
2022/01/28 04:46:49;;;;;;;;;8.75;7.75;;;;;21.86;34.02;102971.13;5075324;27;46632;-59
2022/01/28 04:49:22;;;;;;;;;10.75;8.25;;;;;21.86;33.62;102981.69;5076549;27;45352;-57
2022/01/28 04:56:55;;;;;;;;;11.00;9.00;;;;;21.85;33.67;102985.22;5076404;27;46416;-54
2022/01/28 05:07:55;;;;;;;;;30.50;27.25;;;;;21.59;34.06;102999.09;5074828;27;46444;-52
2022/01/28 05:26:11;;;;;;;;;34.00;31.75;;;;;20.67;34.40;103016.09;5076309;27;45555;-52
2022/01/28 05:28:35;;;;;;;;;38.00;30.50;;;;;20.59;34.75;103013.63;5075882;27;45387;-55
2022/01/28 05:31:01;;;;;;;;;29.75;28.25;;;;;20.53;34.90;103016.41;5076220;27;45811;-53
2022/01/28 05:33:26;;;;;;;;;29.50;27.25;;;;;20.47;34.88;103020.03;5076544;28;45333;-56
2022/01/28 05:35:52;;;;;;;;;28.50;23.00;;;;;20.49;34.99;103020.88;5076315;27;45603;-60
2022/01/28 05:38:17;;;;;;;;;26.50;23.00;;;;;20.55;34.96;103031.28;5074371;28;47970;-58
2022/01/28 05:40:42;;;;;;;;;24.00;21.50;;;;;20.61;34.69;103025.00;5076047;27;45552;-59
2022/01/28 05:43:08;;;;;;;;;21.25;20.00;;;;;20.64;35.00;103017.03;5076149;27;45302;-57
2022/01/28 05:45:33;;;;;;;;;21.25;18.00;;;;;20.69;34.73;103028.34;5076108;27;45498;-60
2022/01/28 05:47:58;;;;;;;;;18.00;17.75;;;;;20.76;34.94;103039.66;5074816;28;46106;-60
2022/01/28 05:50:24;;;;;;;;;21.25;18.00;;;;;20.80;34.80;103043.09;5075792;27;45380;-61
2022/01/28 05:52:49;;;;;;;;;17.00;15.75;;;;;20.82;35.04;103047.44;5076000;27;45333;-60
2022/01/28 05:55:15;;;;;;;;;18.00;16.75;;;;;20.85;35.08;103043.88;5074803;28;45238;-60
2022/01/28 05:57:41;;;;;;;;;18.25;16.00;;;;;20.87;34.94;103049.97;5075913;28;46625;-59
2022/01/28 06:00:07;;;;;;;;;16.25;15.00;;;;;20.89;34.38;103061.34;5079201;27;45354;-60
2022/01/28 06:02:32;;;;;;;;;15.50;13.00;;;;;20.91;34.41;103062.16;5079366;27;45319;-54
2022/01/28 06:04:58;;;;;;;;;13.25;12.25;;;;;20.93;34.95;103070.91;5079729;27;45503;-60
2022/01/28 06:07:24;;;;;;;;;16.25;14.50;;;;;20.93;34.79;103073.56;5078881;27;46438;-57
2022/01/28 06:09:49;;;;;;;;;14.75;14.75;;;;;20.95;34.61;103076.16;5079071;27;45275;-61
2022/01/28 06:12:15;;;;;;;;;13.75;13.75;;;;;20.93;34.92;103070.91;5079074;27;45282;-61
2022/01/28 06:14:43;;;;;;;;;17.00;14.25;;;;;20.94;34.57;103070.03;5079224;27;45231;-60
2022/01/28 06:17:08;;;;;;;;;15.50;13.75;;;;;20.94;34.92;103075.28;5078856;27;46467;-60
2022/01/28 06:19:34;;;;;;;;;12.75;12.50;;;;;20.95;34.68;103070.88;5077529;27;45557;-57
2022/01/28 06:21:59;;;;;;;;;9.00;9.00;;;;;20.95;34.88;103070.88;5079286;27;45331;-58
2022/01/28 06:24:24;;;;;;;;;13.50;13.00;;;;;20.96;34.96;103076.13;5079214;27;45216;-54
2022/01/28 06:26:50;;;;;;;;;14.50;13.25;;;;;20.96;34.46;103070.88;5078899;27;46498;-56
2022/01/28 06:29:15;;;;;;;;;14.00;12.75;;;;;20.95;34.59;103077.03;5078727;27;45359;-56
2022/01/28 06:31:42;;;;;;;;;19.25;15.25;;;;;20.95;34.54;103071.75;5078787;27;45456;-54
2022/01/28 06:34:08;;;;;;;;;11.00;11.00;;;;;20.94;34.42;103063.91;5079061;27;45409;-55
2022/01/28 06:36:33;;;;;;;;;13.25;11.75;;;;;20.94;34.75;103069.16;5078858;27;46186;-52
2022/01/28 06:38:58;;;;;;;;;11.50;11.25;;;;;20.92;34.59;103071.81;5078605;27;45377;-51
2022/01/28 06:41:24;;;;;;;;;13.50;11.00;;;;;20.94;34.47;103080.56;5078710;27;45293;-59
2022/01/28 06:43:49;;;;;;;;;15.00;10.00;;;;;20.91;34.63;103062.16;5078813;27;45397;-59
2022/01/28 06:46:14;;;;;;;;;12.50;10.75;;;;;20.92;34.47;103061.28;5078484;27;45364;-59
2022/01/28 06:48:40;;;;;;;;;12.75;12.75;;;;;20.92;34.68;103077.09;5078639;27;45423;-53
2022/01/28 06:51:05;;;;;;;;;12.25;9.25;;;;;20.92;34.73;103076.25;5078636;27;45791;-56
2022/01/28 06:53:30;;;;;;;;;12.50;10.50;;;;;20.91;34.89;103091.16;5079024;27;45624;-50
2022/01/28 06:55:56;;;;;;;;;18.25;14.25;;;;;20.89;35.14;103087.69;5078438;27;46482;-53
2022/01/28 06:58:21;;;;;;;;;15.75;14.50;;;;;20.88;35.21;103086.00;5076718;28;45713;-54
2022/01/28 07:00:46;;;;;;;;;11.50;9.50;;;;;20.87;35.16;103086.88;5078402;27;45173;-58
2022/01/28 07:03:16;;;;;;;;;15.50;13.25;;;;;20.84;35.19;103085.16;5078402;27;45683;-58
2022/01/28 07:05:42;;;;;;;;;15.50;11.50;;;;;20.82;34.71;103092.25;5078034;27;45931;-56
2022/01/28 07:08:08;;;;;;;;;12.75;11.50;;;;;20.84;35.16;103102.75;5077787;27;45391;-59
2022/01/28 07:10:34;;;;;;;;;12.75;12.75;;;;;20.82;34.95;103097.53;5077711;27;45359;-57
2022/01/28 07:13:00;;;;;;;;;15.00;12.25;;;;;20.81;34.90;103097.53;5078236;27;45448;-56
2022/01/28 07:15:27;;;;;;;;;11.25;8.25;;;;;20.79;35.26;103091.41;5077904;28;45544;-56
2022/01/28 07:18:01;;;;;;;;;12.25;11.75;;;;;20.79;34.98;103096.69;5077955;27;45373;-54
2022/01/28 07:20:29;;;;;;;;;14.50;11.75;;;;;20.78;34.82;103094.97;5077998;27;45240;-55
2022/01/28 07:22:55;;;;;;;;;13.75;10.75;;;;;20.82;34.90;103102.78;5076884;28;45550;-52
2022/01/28 07:25:20;;;;;;;;;16.50;13.75;;;;;20.84;35.49;103105.38;5077848;27;46566;-59
2022/01/28 07:27:45;;;;;;;;;11.50;10.00;;;;;20.83;35.38;103114.19;5076459;28;45353;-60
2022/01/28 07:30:13;;;;;;;;;14.25;12.00;;;;;20.84;35.31;103111.50;5078084;27;45438;-60
2022/01/28 07:32:38;;;;;;;;;11.25;11.25;;;;;20.84;34.70;103115.94;5078157;27;45419;-58
2022/01/28 07:35:07;;;;;;;;;13.25;11.25;;;;;20.83;34.80;103119.47;5078049;27;46360;-61
2022/01/28 07:37:32;;;;;;;;;9.50;9.50;;;;;20.82;34.70;103121.25;5077896;27;45733;-56
2022/01/28 07:39:58;;;;;;;;;13.25;11.00;;;;;20.83;35.16;103122.09;5077861;27;45374;-60
2022/01/28 07:42:25;;;;;;;;;13.75;11.25;;;;;20.81;35.02;103132.69;5077943;27;45362;-61
2022/01/28 07:44:50;;;;;;;;;11.00;11.00;;;;;20.82;34.74;103130.91;5077559;27;46549;-59
2022/01/28 07:47:16;;;;;;;;;12.75;11.00;;;;;20.82;35.04;103136.19;5077617;27;45465;-58
2022/01/28 07:49:41;;;;;;;;;14.00;12.00;;;;;20.80;34.75;103141.50;5076269;28;45485;-54
2022/01/28 07:52:07;;;;;;;;;12.75;10.75;;;;;20.78;34.83;103139.78;5077830;27;45555;-61
2022/01/28 07:54:32;;;;;;;;;14.25;11.25;;;;;20.80;34.79;103143.25;5076121;28;48523;-60
2022/01/28 07:56:58;;;;;;;;;11.75;11.00;;;;;20.79;34.91;103152.03;5077532;27;45460;-58
2022/01/28 07:59:23;;;;;;;;;11.00;10.50;;;;;20.79;34.64;103154.69;5077442;27;45428;-54
2022/01/28 08:01:49;;;;;;;;;12.50;11.25;;;;;20.77;34.86;103157.34;5077639;27;45436;-56
2022/01/28 08:04:14;;;;;;;;;12.25;11.50;;;;;20.77;35.09;103161.78;5077249;27;45501;-59
2022/01/28 08:06:40;;;;;;;;;13.00;10.00;;;;;20.75;35.15;103168.81;5077269;27;45448;-60
2022/01/28 08:09:06;;;;;;;;;10.75;10.00;;;;;20.77;35.01;103172.31;5077703;27;45460;-59
2022/01/28 08:11:32;;;;;;;;;12.25;10.25;;;;;20.75;34.84;103177.59;5077355;27;45330;-55
2022/01/28 08:13:58;;;;;;;;;10.75;10.75;;;;;20.74;35.03;103167.06;5077073;27;46188;-59
2022/01/28 08:16:23;;;;;;;;;10.50;10.00;;;;;20.74;34.66;103167.06;5076966;27;45240;-56
2022/01/28 08:18:48;;;;;;;;;16.50;13.25;;;;;20.73;34.62;103165.31;5077088;28;45409;-60
2022/01/28 08:21:17;;;;;;;;;11.25;10.75;;;;;20.72;34.69;103166.22;5077140;27;45474;-60
2022/01/28 08:23:42;;;;;;;;;10.50;8.75;;;;;20.72;34.85;103166.22;5076931;27;47295;-60
2022/01/28 08:26:08;;;;;;;;;10.50;8.50;;;;;20.71;34.59;103173.25;5077454;28;45366;-59
2022/01/28 08:28:34;;;;;;;;;11.00;10.75;;;;;20.70;34.96;103177.66;5077053;28;45349;-55
2022/01/28 08:31:00;;;;;;;;;10.50;10.50;;;;;20.72;34.56;103171.47;5077230;27;45436;-59
2022/01/28 08:33:26;;;;;;;;;10.50;9.00;;;;;20.73;34.76;103178.50;5076733;27;45406;-58
2022/01/28 08:35:53;;;;;;;;;10.25;10.25;;;;;20.73;34.58;103181.13;5075429;27;45442;-58
2022/01/28 08:38:29;;;;;;;;;9.00;8.00;;;;;20.75;35.12;103195.19;5076900;27;45373;-60
2022/01/28 08:40:57;;;;;;;;;10.75;9.75;;;;;20.74;34.86;103194.28;5077141;27;45376;-58
2022/01/28 08:43:23;;;;;;;;;10.25;8.50;;;;;20.73;34.64;103199.56;5076646;27;46946;-59
2022/01/28 08:45:49;;;;;;;;;9.25;8.25;;;;;20.74;34.54;103209.22;5076583;27;45971;-54
2022/01/28 08:48:14;;;;;;;;;8.75;7.75;;;;;20.73;35.18;103204.84;5076694;27;45310;-51
2022/01/28 08:50:40;;;;;;;;;8.75;8.25;;;;;20.75;35.26;103216.25;5077234;27;45339;-59
2022/01/28 08:53:05;;;;;;;;;11.00;8.50;;;;;20.76;34.83;103220.66;5076463;28;46687;-60
2022/01/28 08:55:31;;;;;;;;;10.50;9.25;;;;;20.78;35.22;103224.13;5076554;27;45574;-59
2022/01/28 08:57:57;;;;;;;;;8.25;8.25;;;;;20.76;35.00;103215.38;5076720;27;45432;-57
2022/01/28 09:00:26;;;;;;;;;7.50;7.50;;;;;20.78;34.85;103229.41;5092453;27;45295;-56
2022/01/28 09:02:52;;;;;;;;;13.25;9.25;;;;;20.79;34.86;103234.63;5076590;27;46514;-59
2022/01/28 09:05:18;;;;;;;;;9.25;8.00;;;;;20.77;35.22;103235.56;5076295;27;45383;-56
2022/01/28 09:07:44;;;;;;;;;11.25;8.50;;;;;20.77;35.25;103246.97;5076574;27;45527;-59
2022/01/28 09:10:17;;;;;;;;;11.00;11.00;;;;;20.75;35.04;103247.88;5077089;27;45448;-57
2022/01/28 09:15:26;;;;;;;;;9.00;7.75;;;;;20.68;35.15;103237.41;5076407;28;45828;-58
2022/01/28 09:17:52;;;;;;;;;10.00;10.00;;;;;20.68;35.17;103242.69;5076307;27;45373;-53
2022/01/28 09:20:17;;;;;;;;;12.50;9.50;;;;;20.65;35.07;103236.59;5076435;27;45318;-54
2022/01/28 09:22:42;;;;;;;;;9.25;8.50;;;;;20.64;34.61;103234.84;5076194;27;45328;-57
2022/01/28 09:25:08;;;;;;;;;11.75;10.50;;;;;20.63;34.71;103236.63;5076507;27;45357;-60
2022/01/28 09:27:33;;;;;;;;;10.25;9.00;;;;;20.64;34.60;103241.00;5074859;28;45335;-48
2022/01/28 09:29:59;;;;;;;;;10.00;8.25;;;;;20.64;35.27;103232.22;5076281;28;45410;-57
2022/01/28 09:32:24;;;;;;;;;9.00;8.00;;;;;20.64;34.77;103240.13;5077034;27;47247;-54
2022/01/28 09:34:50;;;;;;;;;14.75;9.50;;;;;20.66;34.98;103247.13;5077652;27;45318;-50
2022/01/28 09:37:15;;;;;;;;;8.25;8.25;;;;;20.66;35.53;103252.41;5079219;28;45366;-55
2022/01/28 09:39:45;;;;;;;;;11.50;9.25;;;;;20.69;35.02;103259.38;5078854;27;45533;-56
2022/01/28 09:42:16;;;;;;;;;12.75;10.75;;;;;20.68;35.54;103247.94;5079085;27;45543;-47
2022/01/28 09:44:43;;;;;;;;;7.25;6.50;;;;;20.68;34.98;103242.69;5079758;27;45337;-49
2022/01/28 09:47:13;;;;;;;;;9.00;9.00;;;;;20.69;34.99;103254.97;5079412;27;45227;-48
2022/01/28 09:49:42;;;;;;;;;13.75;11.25;;;;;20.70;35.51;103255.84;5078346;28;45438;-56
2022/01/28 09:52:09;;;;;;;;;11.25;9.25;;;;;20.72;35.60;103258.44;5078939;27;45441;-55
2022/01/28 09:54:35;;;;;;;;;7.00;7.00;;;;;20.70;34.84;103251.44;5079161;27;45876;-55
2022/01/28 09:57:02;;;;;;;;;7.50;7.50;;;;;20.71;35.02;103241.78;5079274;28;45528;-55
2022/01/28 09:59:28;;;;;;;;;7.00;7.00;;;;;20.70;34.99;103247.94;5069128;27;45449;-54
2022/01/28 10:01:54;;;;;;;;;7.25;7.25;;;;;20.70;34.91;103246.16;5065363;28;45323;-57
2022/01/28 10:04:21;;;;;;;;;7.25;7.25;;;;;20.68;35.26;103250.59;5069527;27;45936;-53
2022/01/28 10:06:47;;;;;;;;;8.50;6.50;;;;;20.67;34.71;103256.75;5078409;27;45441;-57
2022/01/28 10:09:16;;;;;;;;;9.75;8.25;;;;;20.67;34.77;103258.53;5079049;27;45266;-55
2022/01/28 10:11:44;;;;;;;;;9.00;8.00;;;;;20.67;34.66;103255.91;5078617;27;45596;-55
2022/01/28 10:14:19;;;;;;;;;9.25;9.00;;;;;20.68;34.99;103260.28;5078393;27;46086;-58
2022/01/28 10:16:56;;;;;;;;;8.75;8.00;;;;;20.69;34.83;103262.88;5078433;27;45366;-61
2022/01/28 10:19:24;;;;;;;;;9.50;7.00;;;;;20.69;35.09;103257.59;5078912;27;45322;-55
2022/01/28 10:21:50;;;;;;;;;8.25;8.25;;;;;20.69;35.08;103259.38;5094403;27;48573;-57
2022/01/28 10:24:26;;;;;;;;;7.00;7.00;;;;;20.70;34.79;103259.34;5078542;27;45157;-57
2022/01/28 10:27:05;;;;;;;;;8.00;8.00;;;;;20.69;34.78;103262.88;5078068;28;45581;-60
2022/01/28 10:29:42;;;;;;;;;8.00;8.00;;;;;20.68;34.95;103263.75;5079141;27;45261;-59
2022/01/28 10:32:14;;;;;;;;;7.00;6.75;;;;;20.67;35.11;103261.16;5078316;27;45645;-59
2022/01/28 10:34:40;;;;;;;;;8.25;8.00;;;;;20.67;35.24;103271.69;5078658;28;45456;-60
2022/01/28 10:37:29;;;;;;;;;5.25;5.25;;;;;20.68;35.09;103271.66;5078682;27;45436;-61
2022/01/28 10:39:54;;;;;;;;;7.00;6.75;;;;;20.67;34.66;103266.44;5078752;27;45575;-58
2022/01/28 10:42:25;;;;;;;;;8.75;8.75;;;;;20.66;34.80;103276.13;5078448;28;45524;-60
2022/01/28 10:44:54;;;;;;;;;8.00;7.50;;;;;20.66;34.59;103280.50;5078475;27;45275;-60
2022/01/28 10:47:30;;;;;;;;;9.00;7.00;;;;;20.65;34.78;103278.75;5077446;27;45258;-58
2022/01/28 10:49:56;;;;;;;;;5.75;5.25;;;;;20.63;35.20;103281.44;5077453;27;45194;-57
2022/01/28 10:52:30;;;;;;;;;7.75;6.25;;;;;20.62;35.14;103284.97;5078318;27;46727;-61
2022/01/28 10:54:57;;;;;;;;;6.75;6.00;;;;;20.62;35.13;103291.97;5078461;27;45501;-57
2022/01/28 10:57:22;;;;;;;;;5.50;5.00;;;;;20.61;34.85;103296.38;5078493;27;45284;-60
2022/01/28 10:59:52;;;;;;;;;9.50;9.00;;;;;20.60;34.96;103297.28;5078553;27;45441;-58
2022/01/28 11:02:18;;;;;;;;;8.00;8.00;;;;;20.59;34.77;103295.53;5078262;27;45651;-59
2022/01/28 11:04:45;;;;;;;;;8.00;6.00;;;;;20.58;34.54;103292.94;5078579;27;45485;-62
2022/01/28 11:07:11;;;;;;;;;7.25;6.75;;;;;20.58;35.03;103288.53;5078366;27;45392;-52
2022/01/28 11:09:40;;;;;;;;;4.00;4.00;;;;;20.59;34.95;103290.28;5078382;27;45357;-56
2022/01/28 11:12:07;;;;;;;;;8.00;7.00;;;;;20.57;34.80;103294.69;5077924;27;46232;-61
2022/01/28 11:14:33;;;;;;;;;6.75;6.75;;;;;20.55;34.45;103293.88;5078141;27;45270;-56
2022/01/28 11:16:59;;;;;;;;;7.00;5.25;;;;;20.55;34.91;103291.25;5078118;27;45536;-61
2022/01/28 11:19:28;;;;;;;;;5.25;4.50;;;;;20.55;34.84;103288.59;5078088;27;45527;-56
2022/01/28 11:22:20;;;;;;;;;5.75;5.75;;;;;20.55;34.65;103291.25;5077833;27;46409;-62
2022/01/28 11:25:06;;;;;;;;;6.00;6.00;;;;;20.55;34.52;103278.06;5076923;27;46117;-59
2022/01/28 11:27:36;;;;;;;;;7.25;6.00;;;;;20.54;34.58;103271.06;5077973;27;45334;-59
2022/01/28 11:30:19;;;;;;;;;7.00;7.00;;;;;20.53;34.66;103271.94;5076890;27;45515;-58
2022/01/28 11:33:01;;;;;;;;;7.25;7.25;;;;;20.53;34.89;103271.94;5078169;27;46272;-59
2022/01/28 11:35:32;;;;;;;;;8.00;8.00;;;;;20.50;34.57;103270.25;5077790;28;45841;-61
2022/01/28 11:38:02;;;;;;;;;8.00;5.25;;;;;20.51;34.65;103271.09;5093475;27;45315;-60
2022/01/28 11:40:27;;;;;;;;;7.25;5.00;;;;;20.49;34.41;103265.88;5077863;27;45626;-60
2022/01/28 11:43:19;;;;;;;;;7.00;6.00;;;;;20.50;34.91;103264.09;5077581;27;46096;-62
2022/01/28 11:45:45;;;;;;;;;5.75;5.75;;;;;20.50;34.40;103258.81;5074002;27;45201;-55
2022/01/28 11:48:10;;;;;;;;;5.75;5.75;;;;;20.49;34.87;103252.69;5077715;27;45229;-58
2022/01/28 11:50:36;;;;;;;;;7.00;7.00;;;;;20.48;34.22;103250.06;5077769;27;45580;-51
2022/01/28 11:53:01;;;;;;;;;8.00;7.00;;;;;20.47;34.14;103250.94;5077476;27;46575;-56
2022/01/28 11:55:26;;;;;;;;;9.00;6.25;;;;;20.48;34.69;103243.03;5076807;27;45458;-56
2022/01/28 11:58:12;;;;;;;;;5.33;5.00;;;;;20.47;34.18;103248.31;5077609;27;45371;-52
2022/01/28 12:00:44;;;;;;;;;8.50;7.00;;;;;20.47;34.29;103240.41;5077650;27;45492;-56
2022/01/28 12:03:22;;;;;;;;;4.75;4.75;;;;;20.45;34.24;103237.81;5077436;28;46627;-55
2022/01/28 12:05:49;;;;;;;;;7.25;6.00;;;;;20.44;34.17;103228.19;5077577;27;46009;-53
2022/01/28 12:08:17;;;;;;;;;6.25;6.25;;;;;20.44;34.72;103220.28;5077909;27;45847;-53
2022/01/28 12:10:45;;;;;;;;;5.00;5.00;;;;;20.45;34.64;103226.44;5077553;27;45279;-56
2022/01/28 12:13:17;;;;;;;;;8.25;6.25;;;;;20.47;34.15;103219.34;5075548;27;45325;-56
2022/01/28 12:16:03;;;;;;;;;5.00;4.50;;;;;20.49;34.37;103207.03;5077129;27;45722;-56
2022/01/28 12:18:43;;;;;;;;;6.25;5.25;;;;;20.51;34.40;103214.00;5077231;27;45444;-56
2022/01/28 12:21:15;;;;;;;;;5.00;4.00;;;;;20.57;34.17;103215.66;5077365;27;45419;-59
2022/01/28 12:23:41;;;;;;;;;5.50;5.25;;;;;20.58;34.29;103206.84;5077009;27;46516;-56
2022/01/28 12:26:07;;;;;;;;;7.00;6.25;;;;;20.67;34.64;103203.19;5077076;27;45342;-58
2022/01/28 12:28:32;;;;;;;;;4.75;4.50;;;;;20.72;34.17;103189.94;5077017;27;45456;-57
2022/01/28 12:31:01;;;;;;;;;5.67;4.33;;;;;20.76;34.23;103186.38;5077124;28;45436;-57
2022/01/28 12:33:29;;;;;;;;;6.75;3.50;;;;;20.81;34.55;103179.25;5076775;27;45874;-57
2022/01/28 12:35:57;;;;;;;;;6.50;5.50;;;;;20.87;34.16;103178.25;5076679;27;45319;-59
2022/01/28 12:38:28;;;;;;;;;6.50;5.25;;;;;20.92;34.10;103176.41;5076670;27;45317;-58
2022/01/28 12:40:56;;;;;;;;;5.00;5.00;;;;;20.96;34.20;103168.41;5075678;28;45545;-60
2022/01/28 12:43:24;;;;;;;;;5.00;5.00;;;;;21.01;34.18;103182.34;5076575;27;45684;-56
2022/01/28 12:46:06;;;;;;;;;5.50;5.50;;;;;21.06;34.06;103192.78;5076916;27;45865;-62